sensor_id;sensor_type;location;lat;lon;timestamp;P1;durP1;ratioP1;P2;durP2;ratioP2
23543;SDS011;11950;51.230;4.012;2022-11-20T00:03:33;33.28;;;18.67;;
23543;SDS011;11950;51.230;4.012;2022-11-20T00:06:01;31.23;;;17.55;;
23543;SDS011;11950;51.230;4.012;2022-11-20T00:08:28;31.50;;;18.42;;
23543;SDS011;11950;51.230;4.012;2022-11-20T00:10:55;30.17;;;18.00;;
23543;SDS011;11950;51.230;4.012;2022-11-20T00:13:21;32.67;;;18.08;;
23543;SDS011;11950;51.230;4.012;2022-11-20T00:15:47;29.38;;;17.30;;
23543;SDS011;11950;51.230;4.012;2022-11-20T00:18:14;33.75;;;17.85;;
23543;SDS011;11950;51.230;4.012;2022-11-20T00:20:40;32.50;;;17.25;;
23543;SDS011;11950;51.230;4.012;2022-11-20T00:23:06;32.70;;;17.40;;
23543;SDS011;11950;51.230;4.012;2022-11-20T00:25:35;31.52;;;16.95;;
23543;SDS011;11950;51.230;4.012;2022-11-20T00:28:02;32.10;;;17.85;;
23543;SDS011;11950;51.230;4.012;2022-11-20T00:30:28;30.50;;;17.52;;
23543;SDS011;11950;51.230;4.012;2022-11-20T00:32:56;31.52;;;17.60;;
23543;SDS011;11950;51.230;4.012;2022-11-20T00:35:23;33.42;;;17.38;;
23543;SDS011;11950;51.230;4.012;2022-11-20T00:37:49;31.65;;;17.92;;
23543;SDS011;11950;51.230;4.012;2022-11-20T00:40:15;30.30;;;17.17;;
23543;SDS011;11950;51.230;4.012;2022-11-20T00:42:42;33.15;;;17.58;;
23543;SDS011;11950;51.230;4.012;2022-11-20T00:45:08;33.70;;;19.38;;
23543;SDS011;11950;51.230;4.012;2022-11-20T00:47:34;33.88;;;18.48;;
23543;SDS011;11950;51.230;4.012;2022-11-20T00:50:00;34.10;;;17.83;;
23543;SDS011;11950;51.230;4.012;2022-11-20T00:52:27;35.55;;;19.20;;
23543;SDS011;11950;51.230;4.012;2022-11-20T00:54:53;35.00;;;19.25;;
23543;SDS011;11950;51.230;4.012;2022-11-20T00:57:19;33.92;;;18.92;;
23543;SDS011;11950;51.230;4.012;2022-11-20T00:59:45;35.03;;;18.98;;
23543;SDS011;11950;51.230;4.012;2022-11-20T01:02:11;34.25;;;19.08;;
23543;SDS011;11950;51.230;4.012;2022-11-20T01:04:38;36.33;;;18.77;;
23543;SDS011;11950;51.230;4.012;2022-11-20T01:07:04;35.60;;;19.35;;
23543;SDS011;11950;51.230;4.012;2022-11-20T01:09:30;36.75;;;20.10;;
23543;SDS011;11950;51.230;4.012;2022-11-20T01:11:56;38.55;;;20.15;;
23543;SDS011;11950;51.230;4.012;2022-11-20T01:14:22;36.17;;;19.40;;
23543;SDS011;11950;51.230;4.012;2022-11-20T01:16:49;35.65;;;19.27;;
23543;SDS011;11950;51.230;4.012;2022-11-20T01:19:17;39.00;;;20.85;;
23543;SDS011;11950;51.230;4.012;2022-11-20T01:21:47;37.72;;;19.80;;
23543;SDS011;11950;51.230;4.012;2022-11-20T01:24:16;41.22;;;20.63;;
23543;SDS011;11950;51.230;4.012;2022-11-20T01:26:45;37.92;;;20.52;;
23543;SDS011;11950;51.230;4.012;2022-11-20T01:29:14;37.55;;;19.88;;
23543;SDS011;11950;51.230;4.012;2022-11-20T01:31:42;36.67;;;19.83;;
23543;SDS011;11950;51.230;4.012;2022-11-20T01:34:10;39.92;;;20.98;;
23543;SDS011;11950;51.230;4.012;2022-11-20T01:36:39;38.47;;;20.55;;
23543;SDS011;11950;51.230;4.012;2022-11-20T01:39:07;41.70;;;20.92;;
23543;SDS011;11950;51.230;4.012;2022-11-20T01:41:38;42.03;;;20.55;;
23543;SDS011;11950;51.230;4.012;2022-11-20T01:50:18;38.13;;;20.05;;
23543;SDS011;11950;51.230;4.012;2022-11-20T01:52:50;43.22;;;20.23;;
23543;SDS011;11950;51.230;4.012;2022-11-20T01:55:31;41.28;;;21.35;;
23543;SDS011;11950;51.230;4.012;2022-11-20T01:58:02;41.35;;;21.15;;
23543;SDS011;11950;51.230;4.012;2022-11-20T02:00:29;42.53;;;21.13;;
23543;SDS011;11950;51.230;4.012;2022-11-20T02:03:00;45.78;;;20.55;;
23543;SDS011;11950;51.230;4.012;2022-11-20T02:08:06;43.33;;;21.10;;
23543;SDS011;11950;51.230;4.012;2022-11-20T02:10:32;42.05;;;22.30;;
23543;SDS011;11950;51.230;4.012;2022-11-20T02:12:59;42.97;;;21.20;;
23543;SDS011;11950;51.230;4.012;2022-11-20T02:15:45;49.67;;;23.33;;
23543;SDS011;11950;51.230;4.012;2022-11-20T02:18:13;47.20;;;22.25;;
23543;SDS011;11950;51.230;4.012;2022-11-20T02:20:43;48.33;;;22.00;;
23543;SDS011;11950;51.230;4.012;2022-11-20T02:25:57;49.95;;;22.80;;
23543;SDS011;11950;51.230;4.012;2022-11-20T02:28:24;43.03;;;20.77;;
23543;SDS011;11950;51.230;4.012;2022-11-20T02:30:50;43.63;;;20.67;;
23543;SDS011;11950;51.230;4.012;2022-11-20T02:33:17;42.60;;;20.77;;
23543;SDS011;11950;51.230;4.012;2022-11-20T02:35:44;41.25;;;20.27;;
23543;SDS011;11950;51.230;4.012;2022-11-20T02:38:12;44.75;;;20.63;;
23543;SDS011;11950;51.230;4.012;2022-11-20T02:40:40;45.60;;;20.23;;
23543;SDS011;11950;51.230;4.012;2022-11-20T02:43:06;43.00;;;20.60;;
23543;SDS011;11950;51.230;4.012;2022-11-20T02:45:33;39.88;;;20.42;;
23543;SDS011;11950;51.230;4.012;2022-11-20T02:47:59;42.10;;;20.38;;
23543;SDS011;11950;51.230;4.012;2022-11-20T02:50:25;42.80;;;21.20;;
23543;SDS011;11950;51.230;4.012;2022-11-20T02:52:51;40.67;;;20.50;;
23543;SDS011;11950;51.230;4.012;2022-11-20T02:55:18;45.63;;;21.48;;
23543;SDS011;11950;51.230;4.012;2022-11-20T02:57:44;43.88;;;21.85;;
23543;SDS011;11950;51.230;4.012;2022-11-20T03:00:10;39.03;;;20.67;;
23543;SDS011;11950;51.230;4.012;2022-11-20T03:02:37;42.30;;;20.70;;
23543;SDS011;11950;51.230;4.012;2022-11-20T03:05:03;49.40;;;22.13;;
23543;SDS011;11950;51.230;4.012;2022-11-20T03:07:30;50.78;;;22.27;;
23543;SDS011;11950;51.230;4.012;2022-11-20T03:09:56;46.65;;;22.52;;
23543;SDS011;11950;51.230;4.012;2022-11-20T03:12:22;47.22;;;22.83;;
23543;SDS011;11950;51.230;4.012;2022-11-20T03:14:48;47.35;;;23.10;;
23543;SDS011;11950;51.230;4.012;2022-11-20T03:17:15;48.22;;;23.15;;
23543;SDS011;11950;51.230;4.012;2022-11-20T03:19:42;62.33;;;24.75;;
23543;SDS011;11950;51.230;4.012;2022-11-20T03:22:08;53.33;;;24.23;;
23543;SDS011;11950;51.230;4.012;2022-11-20T03:24:34;49.70;;;22.08;;
23543;SDS011;11950;51.230;4.012;2022-11-20T03:27:00;52.05;;;23.38;;
23543;SDS011;11950;51.230;4.012;2022-11-20T03:29:27;49.33;;;23.58;;
23543;SDS011;11950;51.230;4.012;2022-11-20T03:31:53;44.30;;;22.02;;
23543;SDS011;11950;51.230;4.012;2022-11-20T03:34:19;51.60;;;23.92;;
23543;SDS011;11950;51.230;4.012;2022-11-20T03:36:45;47.28;;;22.55;;
23543;SDS011;11950;51.230;4.012;2022-11-20T03:39:11;46.20;;;22.67;;
23543;SDS011;11950;51.230;4.012;2022-11-20T03:41:38;50.58;;;24.23;;
23543;SDS011;11950;51.230;4.012;2022-11-20T03:44:07;49.55;;;23.05;;
23543;SDS011;11950;51.230;4.012;2022-11-20T03:46:34;48.80;;;23.02;;
23543;SDS011;11950;51.230;4.012;2022-11-20T03:49:01;49.72;;;23.58;;
23543;SDS011;11950;51.230;4.012;2022-11-20T03:51:28;50.17;;;23.65;;
23543;SDS011;11950;51.230;4.012;2022-11-20T03:53:57;50.20;;;22.75;;
23543;SDS011;11950;51.230;4.012;2022-11-20T03:56:25;47.75;;;22.85;;
23543;SDS011;11950;51.230;4.012;2022-11-20T03:58:53;51.63;;;23.85;;
23543;SDS011;11950;51.230;4.012;2022-11-20T04:01:21;46.30;;;22.25;;
23543;SDS011;11950;51.230;4.012;2022-11-20T04:03:51;51.75;;;22.05;;
23543;SDS011;11950;51.230;4.012;2022-11-20T04:06:22;48.00;;;22.15;;
23543;SDS011;11950;51.230;4.012;2022-11-20T04:08:54;47.28;;;22.88;;
23543;SDS011;11950;51.230;4.012;2022-11-20T04:11:25;49.10;;;22.02;;
23543;SDS011;11950;51.230;4.012;2022-11-20T04:13:59;48.20;;;23.02;;
23543;SDS011;11950;51.230;4.012;2022-11-20T04:16:31;45.58;;;21.63;;
23543;SDS011;11950;51.230;4.012;2022-11-20T04:19:00;47.42;;;21.25;;
23543;SDS011;11950;51.230;4.012;2022-11-20T04:21:28;48.08;;;22.85;;
23543;SDS011;11950;51.230;4.012;2022-11-20T04:23:55;46.15;;;21.13;;
23543;SDS011;11950;51.230;4.012;2022-11-20T04:26:22;49.60;;;23.30;;
23543;SDS011;11950;51.230;4.012;2022-11-20T04:28:50;48.72;;;22.40;;
23543;SDS011;11950;51.230;4.012;2022-11-20T04:31:18;44.35;;;20.77;;
23543;SDS011;11950;51.230;4.012;2022-11-20T04:33:46;51.50;;;22.40;;
23543;SDS011;11950;51.230;4.012;2022-11-20T04:36:14;47.80;;;23.25;;
23543;SDS011;11950;51.230;4.012;2022-11-20T04:38:42;44.90;;;22.13;;
23543;SDS011;11950;51.230;4.012;2022-11-20T04:41:16;49.58;;;22.98;;
23543;SDS011;11950;51.230;4.012;2022-11-20T04:43:51;47.35;;;22.58;;
23543;SDS011;11950;51.230;4.012;2022-11-20T04:46:19;52.13;;;22.98;;
23543;SDS011;11950;51.230;4.012;2022-11-20T04:48:46;48.88;;;24.15;;
23543;SDS011;11950;51.230;4.012;2022-11-20T04:51:13;49.42;;;23.63;;
23543;SDS011;11950;51.230;4.012;2022-11-20T04:53:39;50.20;;;23.58;;
23543;SDS011;11950;51.230;4.012;2022-11-20T04:56:07;47.40;;;24.13;;
23543;SDS011;11950;51.230;4.012;2022-11-20T04:58:35;49.83;;;22.92;;
23543;SDS011;11950;51.230;4.012;2022-11-20T05:01:02;51.03;;;23.73;;
23543;SDS011;11950;51.230;4.012;2022-11-20T05:03:30;50.08;;;22.77;;
23543;SDS011;11950;51.230;4.012;2022-11-20T05:05:56;55.78;;;23.73;;
23543;SDS011;11950;51.230;4.012;2022-11-20T05:08:25;48.40;;;23.35;;
23543;SDS011;11950;51.230;4.012;2022-11-20T05:10:51;55.03;;;25.25;;
23543;SDS011;11950;51.230;4.012;2022-11-20T05:13:18;58.22;;;24.95;;
23543;SDS011;11950;51.230;4.012;2022-11-20T05:15:44;54.53;;;25.65;;
23543;SDS011;11950;51.230;4.012;2022-11-20T05:18:10;51.30;;;24.38;;
23543;SDS011;11950;51.230;4.012;2022-11-20T05:20:36;53.28;;;25.35;;
23543;SDS011;11950;51.230;4.012;2022-11-20T05:23:02;53.45;;;25.33;;
23543;SDS011;11950;51.230;4.012;2022-11-20T05:25:29;53.10;;;24.70;;
23543;SDS011;11950;51.230;4.012;2022-11-20T05:27:55;51.20;;;24.95;;
23543;SDS011;11950;51.230;4.012;2022-11-20T05:30:21;52.90;;;25.25;;
23543;SDS011;11950;51.230;4.012;2022-11-20T05:32:47;50.92;;;25.05;;
23543;SDS011;11950;51.230;4.012;2022-11-20T05:35:14;53.40;;;25.70;;
23543;SDS011;11950;51.230;4.012;2022-11-20T05:37:40;56.85;;;24.17;;
23543;SDS011;11950;51.230;4.012;2022-11-20T05:40:06;53.58;;;24.20;;
23543;SDS011;11950;51.230;4.012;2022-11-20T05:42:33;52.72;;;23.88;;
23543;SDS011;11950;51.230;4.012;2022-11-20T05:45:00;57.28;;;24.83;;
23543;SDS011;11950;51.230;4.012;2022-11-20T05:47:31;48.60;;;23.75;;
23543;SDS011;11950;51.230;4.012;2022-11-20T05:49:58;56.17;;;25.67;;
23543;SDS011;11950;51.230;4.012;2022-11-20T05:52:27;43.58;;;21.88;;
23543;SDS011;11950;51.230;4.012;2022-11-20T05:54:55;51.17;;;24.60;;
23543;SDS011;11950;51.230;4.012;2022-11-20T05:57:21;49.92;;;23.92;;
23543;SDS011;11950;51.230;4.012;2022-11-20T05:59:47;46.78;;;23.70;;
23543;SDS011;11950;51.230;4.012;2022-11-20T06:02:13;46.80;;;22.67;;
23543;SDS011;11950;51.230;4.012;2022-11-20T06:04:40;54.05;;;24.77;;
23543;SDS011;11950;51.230;4.012;2022-11-20T06:07:06;49.65;;;23.58;;
23543;SDS011;11950;51.230;4.012;2022-11-20T06:09:32;47.35;;;23.80;;
23543;SDS011;11950;51.230;4.012;2022-11-20T06:11:59;50.22;;;24.90;;
23543;SDS011;11950;51.230;4.012;2022-11-20T06:14:25;47.45;;;23.70;;
23543;SDS011;11950;51.230;4.012;2022-11-20T06:16:51;49.55;;;25.15;;
23543;SDS011;11950;51.230;4.012;2022-11-20T06:19:17;46.05;;;23.67;;
23543;SDS011;11950;51.230;4.012;2022-11-20T06:21:44;47.55;;;23.73;;
23543;SDS011;11950;51.230;4.012;2022-11-20T06:24:10;52.15;;;25.45;;
23543;SDS011;11950;51.230;4.012;2022-11-20T06:26:36;45.33;;;23.23;;
23543;SDS011;11950;51.230;4.012;2022-11-20T06:29:03;47.25;;;23.35;;
23543;SDS011;11950;51.230;4.012;2022-11-20T06:31:29;48.50;;;23.48;;
23543;SDS011;11950;51.230;4.012;2022-11-20T06:33:58;45.85;;;22.88;;
23543;SDS011;11950;51.230;4.012;2022-11-20T06:36:24;48.80;;;24.48;;
23543;SDS011;11950;51.230;4.012;2022-11-20T06:38:50;50.40;;;24.17;;
23543;SDS011;11950;51.230;4.012;2022-11-20T06:41:18;53.67;;;24.63;;
23543;SDS011;11950;51.230;4.012;2022-11-20T06:43:45;49.90;;;24.23;;
23543;SDS011;11950;51.230;4.012;2022-11-20T06:46:12;49.05;;;24.63;;
23543;SDS011;11950;51.230;4.012;2022-11-20T06:48:40;47.97;;;23.25;;
23543;SDS011;11950;51.230;4.012;2022-11-20T06:51:07;47.30;;;23.65;;
23543;SDS011;11950;51.230;4.012;2022-11-20T06:53:34;44.90;;;22.73;;
23543;SDS011;11950;51.230;4.012;2022-11-20T06:56:00;47.53;;;23.58;;
23543;SDS011;11950;51.230;4.012;2022-11-20T06:58:27;51.42;;;24.65;;
23543;SDS011;11950;51.230;4.012;2022-11-20T07:00:57;47.40;;;23.42;;
23543;SDS011;11950;51.230;4.012;2022-11-20T07:03:27;48.55;;;22.55;;
23543;SDS011;11950;51.230;4.012;2022-11-20T07:05:54;46.80;;;23.67;;
23543;SDS011;11950;51.230;4.012;2022-11-20T07:08:22;50.03;;;24.10;;
23543;SDS011;11950;51.230;4.012;2022-11-20T07:10:48;44.20;;;22.73;;
23543;SDS011;11950;51.230;4.012;2022-11-20T07:13:15;47.22;;;23.00;;
23543;SDS011;11950;51.230;4.012;2022-11-20T07:15:41;49.65;;;23.75;;
23543;SDS011;11950;51.230;4.012;2022-11-20T07:18:07;46.45;;;23.20;;
23543;SDS011;11950;51.230;4.012;2022-11-20T07:20:33;52.63;;;24.50;;
23543;SDS011;11950;51.230;4.012;2022-11-20T07:23:00;51.00;;;25.65;;
23543;SDS011;11950;51.230;4.012;2022-11-20T07:25:27;51.75;;;23.95;;
23543;SDS011;11950;51.230;4.012;2022-11-20T07:27:57;50.53;;;24.25;;
23543;SDS011;11950;51.230;4.012;2022-11-20T07:30:24;49.05;;;24.17;;
23543;SDS011;11950;51.230;4.012;2022-11-20T07:32:51;53.78;;;25.50;;
23543;SDS011;11950;51.230;4.012;2022-11-20T07:35:18;55.28;;;26.50;;
23543;SDS011;11950;51.230;4.012;2022-11-20T07:37:45;53.42;;;26.30;;
23543;SDS011;11950;51.230;4.012;2022-11-20T07:40:13;58.13;;;25.98;;
23543;SDS011;11950;51.230;4.012;2022-11-20T07:42:39;64.88;;;27.73;;
23543;SDS011;11950;51.230;4.012;2022-11-20T07:45:16;61.80;;;26.05;;
23543;SDS011;11950;51.230;4.012;2022-11-20T07:47:47;66.50;;;27.83;;
23543;SDS011;11950;51.230;4.012;2022-11-20T07:50:13;64.78;;;28.17;;
23543;SDS011;11950;51.230;4.012;2022-11-20T07:52:40;64.03;;;28.30;;
23543;SDS011;11950;51.230;4.012;2022-11-20T07:55:07;65.85;;;28.63;;
23543;SDS011;11950;51.230;4.012;2022-11-20T07:57:34;62.42;;;28.25;;
23543;SDS011;11950;51.230;4.012;2022-11-20T08:00:00;63.05;;;27.80;;
23543;SDS011;11950;51.230;4.012;2022-11-20T08:02:38;66.10;;;27.13;;
23543;SDS011;11950;51.230;4.012;2022-11-20T08:05:10;63.55;;;27.92;;
23543;SDS011;11950;51.230;4.012;2022-11-20T08:07:40;66.47;;;28.88;;
23543;SDS011;11950;51.230;4.012;2022-11-20T08:10:08;68.85;;;29.55;;
23543;SDS011;11950;51.230;4.012;2022-11-20T08:12:36;59.63;;;27.27;;
23543;SDS011;11950;51.230;4.012;2022-11-20T08:15:29;65.65;;;29.00;;
23543;SDS011;11950;51.230;4.012;2022-11-20T08:17:59;65.30;;;28.65;;
23543;SDS011;11950;51.230;4.012;2022-11-20T08:20:43;67.53;;;30.27;;
23543;SDS011;11950;51.230;4.012;2022-11-20T08:23:10;68.47;;;30.08;;
23543;SDS011;11950;51.230;4.012;2022-11-20T08:25:37;69.05;;;29.42;;
23543;SDS011;11950;51.230;4.012;2022-11-20T08:28:04;69.03;;;29.70;;
23543;SDS011;11950;51.230;4.012;2022-11-20T08:30:32;69.05;;;29.80;;
23543;SDS011;11950;51.230;4.012;2022-11-20T08:33:06;65.60;;;27.92;;
23543;SDS011;11950;51.230;4.012;2022-11-20T08:35:37;71.13;;;29.02;;
23543;SDS011;11950;51.230;4.012;2022-11-20T08:38:05;70.13;;;31.05;;
23543;SDS011;11950;51.230;4.012;2022-11-20T08:40:31;73.53;;;29.90;;
23543;SDS011;11950;51.230;4.012;2022-11-20T08:42:58;64.82;;;29.90;;
23543;SDS011;11950;51.230;4.012;2022-11-20T08:45:24;69.18;;;28.42;;
23543;SDS011;11950;51.230;4.012;2022-11-20T08:47:50;65.35;;;27.67;;
23543;SDS011;11950;51.230;4.012;2022-11-20T08:50:16;73.40;;;30.30;;
23543;SDS011;11950;51.230;4.012;2022-11-20T08:52:43;69.97;;;28.02;;
23543;SDS011;11950;51.230;4.012;2022-11-20T08:55:09;61.75;;;26.92;;
23543;SDS011;11950;51.230;4.012;2022-11-20T08:57:36;69.53;;;28.23;;
23543;SDS011;11950;51.230;4.012;2022-11-20T09:00:04;71.60;;;28.80;;
23543;SDS011;11950;51.230;4.012;2022-11-20T09:02:32;62.92;;;27.05;;
23543;SDS011;11950;51.230;4.012;2022-11-20T09:04:59;67.88;;;27.50;;
23543;SDS011;11950;51.230;4.012;2022-11-20T09:07:28;61.78;;;25.73;;
23543;SDS011;11950;51.230;4.012;2022-11-20T09:09:54;69.32;;;28.13;;
23543;SDS011;11950;51.230;4.012;2022-11-20T09:12:21;66.35;;;27.13;;
23543;SDS011;11950;51.230;4.012;2022-11-20T09:14:47;67.10;;;28.25;;
23543;SDS011;11950;51.230;4.012;2022-11-20T09:17:13;66.05;;;27.40;;
23543;SDS011;11950;51.230;4.012;2022-11-20T09:19:40;66.05;;;28.27;;
23543;SDS011;11950;51.230;4.012;2022-11-20T09:22:06;72.55;;;27.70;;
23543;SDS011;11950;51.230;4.012;2022-11-20T09:24:33;64.28;;;27.17;;
23543;SDS011;11950;51.230;4.012;2022-11-20T09:27:01;67.53;;;27.25;;
23543;SDS011;11950;51.230;4.012;2022-11-20T09:29:28;69.30;;;27.35;;
23543;SDS011;11950;51.230;4.012;2022-11-20T09:31:54;70.10;;;28.80;;
23543;SDS011;11950;51.230;4.012;2022-11-20T09:34:21;71.20;;;27.30;;
23543;SDS011;11950;51.230;4.012;2022-11-20T09:36:47;65.53;;;27.77;;
23543;SDS011;11950;51.230;4.012;2022-11-20T09:39:13;63.67;;;27.00;;
23543;SDS011;11950;51.230;4.012;2022-11-20T09:44:34;68.40;;;25.75;;
23543;SDS011;11950;51.230;4.012;2022-11-20T09:55:38;64.93;;;26.10;;
23543;SDS011;11950;51.230;4.012;2022-11-20T09:58:06;64.70;;;26.50;;
23543;SDS011;11950;51.230;4.012;2022-11-20T10:00:37;60.80;;;24.67;;
23543;SDS011;11950;51.230;4.012;2022-11-20T10:03:14;62.55;;;26.50;;
23543;SDS011;11950;51.230;4.012;2022-11-20T10:05:46;64.75;;;26.85;;
23543;SDS011;11950;51.230;4.012;2022-11-20T10:11:07;56.17;;;26.02;;
23543;SDS011;11950;51.230;4.012;2022-11-20T10:13:53;66.00;;;25.50;;
23543;SDS011;11950;51.230;4.012;2022-11-20T10:22:50;56.65;;;25.00;;
23543;SDS011;11950;51.230;4.012;2022-11-20T10:30:26;53.65;;;23.98;;
23543;SDS011;11950;51.230;4.012;2022-11-20T10:32:58;54.53;;;24.63;;
23543;SDS011;11950;51.230;4.012;2022-11-20T10:35:52;50.13;;;23.17;;
23543;SDS011;11950;51.230;4.012;2022-11-20T10:38:50;53.80;;;24.50;;
23543;SDS011;11950;51.230;4.012;2022-11-20T10:41:34;49.28;;;22.92;;
23543;SDS011;11950;51.230;4.012;2022-11-20T10:44:12;47.90;;;22.27;;
23543;SDS011;11950;51.230;4.012;2022-11-20T10:47:05;52.78;;;22.15;;
23543;SDS011;11950;51.230;4.012;2022-11-20T10:49:40;45.65;;;20.52;;
23543;SDS011;11950;51.230;4.012;2022-11-20T11:00:50;48.40;;;20.98;;
23543;SDS011;11950;51.230;4.012;2022-11-20T11:03:22;46.40;;;20.45;;
23543;SDS011;11950;51.230;4.012;2022-11-20T11:08:43;45.70;;;21.88;;
23543;SDS011;11950;51.230;4.012;2022-11-20T11:11:18;40.88;;;19.73;;
23543;SDS011;11950;51.230;4.012;2022-11-20T11:14:04;36.45;;;18.65;;
23543;SDS011;11950;51.230;4.012;2022-11-20T11:16:31;40.33;;;19.00;;
23543;SDS011;11950;51.230;4.012;2022-11-20T11:21:53;32.40;;;17.42;;
23543;SDS011;11950;51.230;4.012;2022-11-20T11:24:25;33.72;;;17.65;;
23543;SDS011;11950;51.230;4.012;2022-11-20T11:29:24;38.90;;;17.63;;
23543;SDS011;11950;51.230;4.012;2022-11-20T11:32:07;34.63;;;17.23;;
23543;SDS011;11950;51.230;4.012;2022-11-20T11:34:39;33.90;;;16.58;;
23543;SDS011;11950;51.230;4.012;2022-11-20T11:37:10;35.15;;;16.95;;
23543;SDS011;11950;51.230;4.012;2022-11-20T11:39:47;30.65;;;15.88;;
23543;SDS011;11950;51.230;4.012;2022-11-20T11:42:16;32.22;;;15.77;;
23543;SDS011;11950;51.230;4.012;2022-11-20T11:44:45;31.08;;;16.55;;
23543;SDS011;11950;51.230;4.012;2022-11-20T11:47:43;28.95;;;15.30;;
23543;SDS011;11950;51.230;4.012;2022-11-20T11:50:14;31.55;;;15.23;;
23543;SDS011;11950;51.230;4.012;2022-11-20T12:01:30;21.13;;;12.13;;
23543;SDS011;11950;51.230;4.012;2022-11-20T12:07:22;24.17;;;12.75;;
23543;SDS011;11950;51.230;4.012;2022-11-20T12:10:05;17.92;;;8.88;;
23543;SDS011;11950;51.230;4.012;2022-11-20T12:12:43;19.40;;;9.48;;
23543;SDS011;11950;51.230;4.012;2022-11-20T12:15:13;19.98;;;10.25;;
23543;SDS011;11950;51.230;4.012;2022-11-20T12:17:48;20.67;;;8.88;;
23543;SDS011;11950;51.230;4.012;2022-11-20T12:20:14;17.63;;;8.80;;
23543;SDS011;11950;51.230;4.012;2022-11-20T12:23:01;11.30;;;7.13;;
23543;SDS011;11950;51.230;4.012;2022-11-20T12:25:35;10.15;;;5.97;;
23543;SDS011;11950;51.230;4.012;2022-11-20T12:28:07;12.25;;;6.00;;
23543;SDS011;11950;51.230;4.012;2022-11-20T12:31:19;10.27;;;5.50;;
23543;SDS011;11950;51.230;4.012;2022-11-20T12:34:17;8.10;;;5.00;;
23543;SDS011;11950;51.230;4.012;2022-11-20T12:36:51;7.93;;;4.70;;
23543;SDS011;11950;51.230;4.012;2022-11-20T12:39:35;9.77;;;6.03;;
23543;SDS011;11950;51.230;4.012;2022-11-20T13:07:39;5.05;;;3.50;;
23543;SDS011;11950;51.230;4.012;2022-11-20T13:10:13;5.32;;;2.88;;
23543;SDS011;11950;51.230;4.012;2022-11-20T13:12:53;5.25;;;2.60;;
23543;SDS011;11950;51.230;4.012;2022-11-20T13:15:35;5.85;;;3.38;;
23543;SDS011;11950;51.230;4.012;2022-11-20T13:18:08;5.75;;;3.35;;
23543;SDS011;11950;51.230;4.012;2022-11-20T13:20:36;6.50;;;3.13;;
23543;SDS011;11950;51.230;4.012;2022-11-20T13:23:11;4.88;;;2.53;;
23543;SDS011;11950;51.230;4.012;2022-11-20T13:25:48;5.15;;;2.60;;
23543;SDS011;11950;51.230;4.012;2022-11-20T13:30:50;3.72;;;2.63;;
23543;SDS011;11950;51.230;4.012;2022-11-20T13:36:19;207.55;;;81.05;;
23543;SDS011;11950;51.230;4.012;2022-11-20T13:38:49;22.30;;;12.07;;
23543;SDS011;11950;51.230;4.012;2022-11-20T13:41:27;15.95;;;6.68;;
23543;SDS011;11950;51.230;4.012;2022-11-20T13:44:23;7.55;;;4.47;;
23543;SDS011;11950;51.230;4.012;2022-11-20T13:46:53;5.57;;;3.50;;
23543;SDS011;11950;51.230;4.012;2022-11-20T13:49:32;6.28;;;2.80;;
23543;SDS011;11950;51.230;4.012;2022-11-20T14:00:48;3.40;;;2.30;;
23543;SDS011;11950;51.230;4.012;2022-11-20T14:03:21;2.50;;;2.28;;
23543;SDS011;11950;51.230;4.012;2022-11-20T14:05:50;3.10;;;2.10;;
23543;SDS011;11950;51.230;4.012;2022-11-20T14:08:41;2.00;;;1.80;;
23543;SDS011;11950;51.230;4.012;2022-11-20T14:11:16;3.42;;;1.88;;
23543;SDS011;11950;51.230;4.012;2022-11-20T14:14:00;4.80;;;1.92;;
23543;SDS011;11950;51.230;4.012;2022-11-20T14:16:38;1.70;;;1.60;;
23543;SDS011;11950;51.230;4.012;2022-11-20T14:24:13;3.75;;;1.80;;
23543;SDS011;11950;51.230;4.012;2022-11-20T14:26:44;1.60;;;1.50;;
23543;SDS011;11950;51.230;4.012;2022-11-20T14:29:21;3.03;;;1.50;;
23543;SDS011;11950;51.230;4.012;2022-11-20T14:34:24;3.55;;;1.40;;
23543;SDS011;11950;51.230;4.012;2022-11-20T14:36:57;1.98;;;1.65;;
23543;SDS011;11950;51.230;4.012;2022-11-20T14:39:35;2.13;;;1.90;;
23543;SDS011;11950;51.230;4.012;2022-11-20T14:42:19;1.95;;;1.70;;
23543;SDS011;11950;51.230;4.012;2022-11-20T14:44:50;2.42;;;1.55;;
23543;SDS011;11950;51.230;4.012;2022-11-20T14:47:26;2.60;;;2.08;;
23543;SDS011;11950;51.230;4.012;2022-11-20T14:49:55;2.10;;;2.00;;
23543;SDS011;11950;51.230;4.012;2022-11-20T14:52:24;3.28;;;2.17;;
23543;SDS011;11950;51.230;4.012;2022-11-20T14:54:55;2.08;;;1.98;;
23543;SDS011;11950;51.230;4.012;2022-11-20T14:57:30;3.03;;;2.35;;
23543;SDS011;11950;51.230;4.012;2022-11-20T15:02:47;2.42;;;2.00;;
23543;SDS011;11950;51.230;4.012;2022-11-20T15:05:15;3.35;;;2.90;;
23543;SDS011;11950;51.230;4.012;2022-11-20T15:07:48;5.25;;;3.08;;
23543;SDS011;11950;51.230;4.012;2022-11-20T15:10:20;5.03;;;3.88;;
23543;SDS011;11950;51.230;4.012;2022-11-20T15:12:52;5.00;;;4.18;;
23543;SDS011;11950;51.230;4.012;2022-11-20T15:15:23;5.18;;;4.20;;
23543;SDS011;11950;51.230;4.012;2022-11-20T15:17:53;6.97;;;4.57;;
23543;SDS011;11950;51.230;4.012;2022-11-20T15:20:20;6.40;;;5.28;;
23543;SDS011;11950;51.230;4.012;2022-11-20T15:22:49;8.32;;;6.00;;
23543;SDS011;11950;51.230;4.012;2022-11-20T15:25:16;11.40;;;5.70;;
23543;SDS011;11950;51.230;4.012;2022-11-20T15:27:44;7.85;;;4.57;;
23543;SDS011;11950;51.230;4.012;2022-11-20T15:30:15;4.95;;;4.45;;
23543;SDS011;11950;51.230;4.012;2022-11-20T15:35:09;6.88;;;3.55;;
23543;SDS011;11950;51.230;4.012;2022-11-20T15:37:36;5.10;;;2.78;;
23543;SDS011;11950;51.230;4.012;2022-11-20T15:40:03;7.28;;;2.45;;
23543;SDS011;11950;51.230;4.012;2022-11-20T15:42:31;10.43;;;2.42;;
23543;SDS011;11950;51.230;4.012;2022-11-20T15:44:58;7.95;;;2.40;;
23543;SDS011;11950;51.230;4.012;2022-11-20T15:47:31;5.85;;;2.20;;
23543;SDS011;11950;51.230;4.012;2022-11-20T15:49:59;6.38;;;2.00;;
23543;SDS011;11950;51.230;4.012;2022-11-20T15:52:26;10.65;;;1.88;;
23543;SDS011;11950;51.230;4.012;2022-11-20T15:54:52;8.23;;;1.90;;
23543;SDS011;11950;51.230;4.012;2022-11-20T15:57:18;10.48;;;1.92;;
23543;SDS011;11950;51.230;4.012;2022-11-20T15:59:44;13.13;;;2.13;;
23543;SDS011;11950;51.230;4.012;2022-11-20T16:02:11;12.38;;;1.77;;
23543;SDS011;11950;51.230;4.012;2022-11-20T16:04:38;11.15;;;1.70;;
23543;SDS011;11950;51.230;4.012;2022-11-20T16:07:04;9.20;;;1.50;;
23543;SDS011;11950;51.230;4.012;2022-11-20T16:09:31;12.40;;;1.70;;
23543;SDS011;11950;51.230;4.012;2022-11-20T16:11:58;12.45;;;1.60;;
23543;SDS011;11950;51.230;4.012;2022-11-20T16:14:27;11.75;;;1.67;;
23543;SDS011;11950;51.230;4.012;2022-11-20T16:17:12;9.77;;;1.48;;
23543;SDS011;11950;51.230;4.012;2022-11-20T16:19:39;7.88;;;1.38;;
23543;SDS011;11950;51.230;4.012;2022-11-20T16:22:05;10.43;;;1.42;;
23543;SDS011;11950;51.230;4.012;2022-11-20T16:24:31;10.38;;;2.30;;
23543;SDS011;11950;51.230;4.012;2022-11-20T16:26:57;14.15;;;2.55;;
23543;SDS011;11950;51.230;4.012;2022-11-20T16:29:24;10.80;;;1.85;;
23543;SDS011;11950;51.230;4.012;2022-11-20T16:31:50;14.75;;;2.17;;
23543;SDS011;11950;51.230;4.012;2022-11-20T16:34:16;13.48;;;2.20;;
23543;SDS011;11950;51.230;4.012;2022-11-20T16:36:44;7.88;;;2.10;;
23543;SDS011;11950;51.230;4.012;2022-11-20T16:39:10;9.10;;;1.50;;
23543;SDS011;11950;51.230;4.012;2022-11-20T16:41:37;17.25;;;2.85;;